createdAt,value
2023-04-18T00:00:56.858Z,11.05
2023-04-18T00:01:56.938Z,10.95
2023-04-18T00:02:57.451Z,10.86
2023-04-18T00:03:57.038Z,10.81
2023-04-18T00:04:56.912Z,10.76
2023-04-18T00:05:56.850Z,10.71
2023-04-18T00:06:56.801Z,10.66
2023-04-18T00:07:56.888Z,10.69
2023-04-18T00:08:56.880Z,10.68
2023-04-18T00:09:56.762Z,10.67
2023-04-18T00:10:56.786Z,10.58
2023-04-18T00:11:56.785Z,10.52
2023-04-18T00:12:56.801Z,10.62
2023-04-18T00:13:56.788Z,10.66
2023-04-18T00:14:56.729Z,10.56
2023-04-18T00:15:56.753Z,10.57
2023-04-18T00:16:56.827Z,10.66
2023-04-18T00:17:56.827Z,10.78
2023-04-18T00:18:56.823Z,10.77
2023-04-18T00:19:56.753Z,10.77
2023-04-18T00:20:56.747Z,10.89
2023-04-18T00:21:56.702Z,10.97
2023-04-18T00:22:56.681Z,11.09
2023-04-18T00:23:56.693Z,11.13
2023-04-18T00:24:57.247Z,11.09
2023-04-18T00:25:56.701Z,11.13
2023-04-18T00:26:56.704Z,11.10
2023-04-18T00:27:56.701Z,11.18
2023-04-18T00:28:56.635Z,11.19
2023-04-18T00:29:56.703Z,11.14
2023-04-18T00:30:56.740Z,11.11
2023-04-18T00:31:56.680Z,11.14
2023-04-18T00:32:56.732Z,11.05
2023-04-18T00:33:57.349Z,10.92
2023-04-18T00:34:56.681Z,10.91
2023-04-18T00:35:56.651Z,10.83
2023-04-18T00:36:56.605Z,10.71
2023-04-18T00:37:56.719Z,10.64
2023-04-18T00:38:56.621Z,10.60
2023-04-18T00:39:56.595Z,10.53
2023-04-18T00:40:56.590Z,10.51
2023-04-18T00:41:56.608Z,10.46
2023-04-18T00:42:56.599Z,10.47
2023-04-18T00:43:56.582Z,10.43
2023-04-18T00:44:56.553Z,10.39
2023-04-18T00:45:56.628Z,10.43
2023-04-18T00:46:57.296Z,10.46
2023-04-18T00:47:56.629Z,10.43
2023-04-18T00:48:56.562Z,10.53
2023-04-18T00:49:56.554Z,10.70
2023-04-18T00:50:56.556Z,10.83
2023-04-18T00:51:56.555Z,10.85
2023-04-18T00:52:56.531Z,10.71
2023-04-18T00:53:56.541Z,10.60
2023-04-18T00:54:56.514Z,10.52
2023-04-18T00:55:56.518Z,10.52
2023-04-18T00:56:56.490Z,10.48
2023-04-18T00:57:56.523Z,10.53
2023-04-18T00:58:56.482Z,10.50
2023-04-18T00:59:56.480Z,10.51
2023-04-18T01:00:56.458Z,10.64
2023-04-18T01:01:57.391Z,10.63
2023-04-18T01:02:56.596Z,10.61
2023-04-18T01:03:57.532Z,10.71
2023-04-18T01:04:56.475Z,10.91
2023-04-18T01:05:56.463Z,11.07
2023-04-18T01:06:56.437Z,11.07
2023-04-18T01:07:57.355Z,11.15
2023-04-18T01:08:56.419Z,11.30
2023-04-18T01:09:56.425Z,11.39
2023-04-18T01:10:56.426Z,11.47
2023-04-18T01:11:56.542Z,11.50
2023-04-18T01:12:56.442Z,11.53
2023-04-18T01:13:56.452Z,11.38
2023-04-18T01:14:56.456Z,11.19
2023-04-18T01:15:56.433Z,10.98
2023-04-18T01:16:56.345Z,10.87
2023-04-18T01:17:56.439Z,10.76
2023-04-18T01:18:56.350Z,10.69
2023-04-18T01:19:56.360Z,10.58
2023-04-18T01:20:56.394Z,10.56
2023-04-18T01:21:56.362Z,10.62
2023-04-18T01:22:56.370Z,10.72
2023-04-18T01:23:56.321Z,10.74
2023-04-18T01:24:56.338Z,10.72
2023-04-18T01:25:56.336Z,10.75
2023-04-18T01:26:56.360Z,10.71
2023-04-18T01:27:56.339Z,10.71
2023-04-18T01:28:56.318Z,10.64
2023-04-18T01:29:56.346Z,10.62
2023-04-18T01:30:56.364Z,10.80
2023-04-18T01:31:56.832Z,10.74
2023-04-18T01:32:56.369Z,10.71
2023-04-18T01:33:56.281Z,10.62
2023-04-18T01:34:56.272Z,10.54
2023-04-18T01:35:56.281Z,10.58
2023-04-18T01:36:56.237Z,10.69
2023-04-18T01:37:56.278Z,10.83
2023-04-18T01:38:56.215Z,10.93
2023-04-18T01:39:56.215Z,11.12
2023-04-18T01:40:56.226Z,11.23
2023-04-18T01:41:56.209Z,11.24
2023-04-18T01:42:56.254Z,11.22
2023-04-18T01:43:56.225Z,11.29
2023-04-18T01:44:56.140Z,11.40
2023-04-18T01:45:56.166Z,11.47
2023-04-18T01:46:56.267Z,11.56
2023-04-18T01:47:56.297Z,11.64
2023-04-18T01:48:56.190Z,11.70
2023-04-18T01:49:56.173Z,11.75
2023-04-18T01:50:56.191Z,11.82
2023-04-18T01:51:56.200Z,11.70
2023-04-18T01:52:56.123Z,11.41
2023-04-18T01:53:56.125Z,11.14
2023-04-18T01:54:56.132Z,10.98
2023-04-18T01:55:56.158Z,10.84
2023-04-18T01:56:56.131Z,10.70
2023-04-18T01:57:56.142Z,10.63
2023-04-18T01:58:56.138Z,10.59
2023-04-18T01:59:56.123Z,10.60
2023-04-18T02:00:56.093Z,10.57
2023-04-18T02:01:56.217Z,10.52
2023-04-18T02:02:56.247Z,10.51
2023-04-18T02:03:56.301Z,10.50
2023-04-18T02:04:56.074Z,10.48
2023-04-18T02:05:56.083Z,10.49
2023-04-18T02:06:56.092Z,10.52
2023-04-18T02:07:56.093Z,10.49
2023-04-18T02:08:56.038Z,10.47
2023-04-18T02:09:56.023Z,10.44
2023-04-18T02:10:56.047Z,10.45
2023-04-18T02:11:56.029Z,10.44
2023-04-18T02:12:56.052Z,10.51
2023-04-18T02:13:56.037Z,10.61
2023-04-18T02:14:56.887Z,10.74
2023-04-18T02:15:55.952Z,10.94
2023-04-18T02:16:56.980Z,11.11
2023-04-18T02:17:56.087Z,11.18
2023-04-18T02:18:55.962Z,11.26
2023-04-18T02:19:55.976Z,11.21
2023-04-18T02:20:55.981Z,11.16
2023-04-18T02:21:55.965Z,11.29
2023-04-18T02:22:56.013Z,11.48
2023-04-18T02:23:55.915Z,11.65
2023-04-18T02:24:55.928Z,11.76
2023-04-18T02:25:55.927Z,11.77
2023-04-18T02:26:56.013Z,11.73
2023-04-18T02:27:55.998Z,11.80
2023-04-18T02:28:55.922Z,11.91
2023-04-18T02:29:55.940Z,11.89
2023-04-18T02:30:55.948Z,11.96
2023-04-18T02:31:55.988Z,12.08
2023-04-18T02:32:55.968Z,12.01
2023-04-18T02:33:55.879Z,11.93
2023-04-18T02:34:55.882Z,11.99
2023-04-18T02:35:55.912Z,12.04
2023-04-18T02:36:55.889Z,12.01
2023-04-18T02:37:55.887Z,12.05
2023-04-18T02:38:55.819Z,12.21
2023-04-18T02:39:55.889Z,12.30
2023-04-18T02:40:55.841Z,12.38
2023-04-18T02:41:55.822Z,12.48
2023-04-18T02:42:55.864Z,12.62
2023-04-18T02:43:55.819Z,12.73
2023-04-18T02:44:55.841Z,12.72
2023-04-18T02:45:55.901Z,12.73
2023-04-18T02:46:55.835Z,12.68
2023-04-18T02:47:56.644Z,12.51
2023-04-18T02:48:55.783Z,12.55
2023-04-18T02:49:55.800Z,12.55
2023-04-18T02:50:55.773Z,12.45
2023-04-18T02:51:55.778Z,12.32
2023-04-18T02:52:55.806Z,12.44
2023-04-18T02:53:56.352Z,12.36
2023-04-18T02:54:55.782Z,12.19
2023-04-18T02:55:55.729Z,12.30
2023-04-18T02:56:55.731Z,12.37
2023-04-18T02:57:55.761Z,12.47
2023-04-18T02:58:55.725Z,12.37
2023-04-18T02:59:55.737Z,12.46
2023-04-18T03:00:55.779Z,12.57
2023-04-18T03:01:55.703Z,12.68
2023-04-18T03:02:55.785Z,12.77
2023-04-18T03:03:55.816Z,12.85
2023-04-18T03:04:55.706Z,12.79
2023-04-18T03:05:55.738Z,12.75
2023-04-18T03:06:55.690Z,12.70
2023-04-18T03:07:55.693Z,12.66
2023-04-18T03:08:55.654Z,12.47
2023-04-18T03:09:55.658Z,12.46
2023-04-18T03:10:56.274Z,12.50
2023-04-18T03:11:55.683Z,12.59
2023-04-18T03:12:55.632Z,12.54
2023-04-18T03:13:55.600Z,12.54
2023-04-18T03:14:55.656Z,12.55
2023-04-18T03:15:55.630Z,12.50
2023-04-18T03:16:55.746Z,12.59
2023-04-18T03:17:55.590Z,12.69
2023-04-18T03:18:56.431Z,12.72
2023-04-18T03:19:55.579Z,12.64
2023-04-18T03:20:55.593Z,12.71
2023-04-18T03:21:55.638Z,12.75
2023-04-18T03:22:55.570Z,12.78
2023-04-18T03:23:55.520Z,12.77
2023-04-18T03:24:55.581Z,12.64
2023-04-18T03:25:55.537Z,12.54
2023-04-18T03:26:55.561Z,12.55
2023-04-18T03:27:55.526Z,12.49
2023-04-18T03:28:56.445Z,12.51
2023-04-18T03:29:55.538Z,12.49
2023-04-18T03:30:56.466Z,12.23
2023-04-18T03:31:55.534Z,12.27
2023-04-18T03:32:55.555Z,12.42
2023-04-18T03:33:55.479Z,12.53
2023-04-18T03:34:55.466Z,12.57
2023-04-18T03:35:55.568Z,12.65
2023-04-18T03:36:55.475Z,12.72
2023-04-18T03:37:56.278Z,12.70
2023-04-18T03:38:55.453Z,12.53
2023-04-18T03:39:55.417Z,12.50
2023-04-18T03:40:55.432Z,12.58
2023-04-18T03:41:55.425Z,12.44
2023-04-18T03:42:55.625Z,12.31
2023-04-18T03:43:55.408Z,12.25
2023-04-18T03:44:55.390Z,12.34
2023-04-18T03:45:55.407Z,12.43
2023-04-18T03:46:55.454Z,12.24
2023-04-18T03:47:55.406Z,12.19
2023-04-18T03:48:55.920Z,12.04
2023-04-18T03:49:55.398Z,12.14
2023-04-18T03:50:55.370Z,12.10
2023-04-18T03:51:55.373Z,12.18
2023-04-18T03:52:55.393Z,12.22
2023-04-18T03:53:55.313Z,12.29
2023-04-18T03:54:55.346Z,12.39
2023-04-18T03:55:55.303Z,12.38
2023-04-18T03:56:55.328Z,12.29
2023-04-18T03:57:55.342Z,12.27
2023-04-18T03:58:55.322Z,12.29
2023-04-18T03:59:55.251Z,12.23
2023-04-18T04:00:55.310Z,12.29
2023-04-18T04:01:55.331Z,12.24
2023-04-18T04:02:55.564Z,12.26
2023-04-18T04:03:55.309Z,12.20
2023-04-18T04:04:55.325Z,12.03
2023-04-18T04:05:55.288Z,12.08
2023-04-18T04:06:55.249Z,12.19
2023-04-18T04:07:55.275Z,11.93
2023-04-18T04:08:55.229Z,11.90
2023-04-18T04:09:55.930Z,11.88
2023-04-18T04:10:55.228Z,11.74
2023-04-18T04:11:55.239Z,11.68
2023-04-18T04:12:55.242Z,11.57
2023-04-18T04:13:55.338Z,11.57
2023-04-18T04:14:55.284Z,11.56
2023-04-18T04:15:55.373Z,11.49
2023-04-18T04:16:55.274Z,11.59
2023-04-18T04:17:55.235Z,11.71
2023-04-18T04:18:55.257Z,11.73
2023-04-18T04:19:55.192Z,11.69
2023-04-18T04:20:55.179Z,11.62
2023-04-18T04:21:55.175Z,11.48
2023-04-18T04:22:55.193Z,11.41
2023-04-18T04:23:55.124Z,11.60
2023-04-18T04:24:55.093Z,11.59
2023-04-18T04:25:55.116Z,11.72
2023-04-18T04:26:55.088Z,11.82
2023-04-18T04:27:55.116Z,11.71
2023-04-18T04:28:55.123Z,11.59
2023-04-18T04:29:55.101Z,11.61
2023-04-18T04:30:55.031Z,11.59
2023-04-18T04:31:55.074Z,11.66
2023-04-18T04:32:55.121Z,11.53
2023-04-18T04:33:55.103Z,11.38
2023-04-18T04:34:55.037Z,11.45
2023-04-18T04:35:55.070Z,11.43
2023-04-18T04:36:55.065Z,11.34
2023-04-18T04:37:55.073Z,11.26
2023-04-18T04:38:55.172Z,11.23
2023-04-18T04:39:55.076Z,11.23
2023-04-18T04:40:56.079Z,11.24
2023-04-18T04:41:55.177Z,11.43
2023-04-18T04:42:55.093Z,11.49
2023-04-18T04:43:55.907Z,11.57
2023-04-18T04:44:55.046Z,11.50
2023-04-18T04:45:55.036Z,11.47
2023-04-18T04:46:54.955Z,11.57
2023-04-18T04:47:55.025Z,11.50
2023-04-18T04:48:54.967Z,11.43
2023-04-18T04:49:54.960Z,11.48
2023-04-18T04:50:54.980Z,11.44
2023-04-18T04:51:54.960Z,11.68
2023-04-18T04:52:54.957Z,11.89
2023-04-18T04:53:54.901Z,11.96
2023-04-18T04:54:54.927Z,12.03
2023-04-18T04:55:54.997Z,11.94
2023-04-18T04:56:55.497Z,11.99
2023-04-18T04:57:54.917Z,11.94
2023-04-18T04:58:54.918Z,11.90
2023-04-18T04:59:54.898Z,11.95
2023-04-18T05:02:22.671Z,12.05
2023-04-18T05:03:14.994Z,12.02
2023-04-18T05:04:15.181Z,12.07
2023-04-18T05:05:14.806Z,11.95
2023-04-18T05:06:14.815Z,11.98
2023-04-18T05:07:14.801Z,11.97
2023-04-18T05:08:14.811Z,12.05
2023-04-18T05:09:14.801Z,12.08
2023-04-18T05:10:14.775Z,12.05
2023-04-18T05:11:14.773Z,12.13
2023-04-18T05:12:14.777Z,12.19
2023-04-18T05:13:14.740Z,12.11
2023-04-18T05:14:15.044Z,12.19
2023-04-18T05:15:14.716Z,12.05
2023-04-18T05:16:14.782Z,11.83
2023-04-18T05:17:14.768Z,11.89
2023-04-18T05:18:14.798Z,12.01
2023-04-18T05:19:14.788Z,12.04
2023-04-18T05:20:14.840Z,12.14
2023-04-18T05:21:14.904Z,12.18
2023-04-18T05:22:14.962Z,12.11
2023-04-18T05:23:15.084Z,12.17
2023-04-18T05:24:15.251Z,12.24
2023-04-18T05:25:15.081Z,11.99
2023-04-18T05:26:15.104Z,11.85
2023-04-18T05:27:17.217Z,11.68
2023-04-18T05:28:15.175Z,11.58
2023-04-18T05:29:15.414Z,11.49
2023-04-18T05:30:15.115Z,11.50
2023-04-18T05:31:15.267Z,11.48
2023-04-18T05:32:15.109Z,11.68
2023-04-18T05:33:15.547Z,11.85
2023-04-18T05:34:15.476Z,11.67
2023-04-18T05:35:15.245Z,11.56
2023-04-18T05:36:15.053Z,11.66
2023-04-18T05:37:15.079Z,11.83
2023-04-18T05:38:15.612Z,12.03
2023-04-18T05:39:15.136Z,12.14
2023-04-18T05:40:16.106Z,12.15
2023-04-18T05:41:15.042Z,12.30
2023-04-18T05:42:15.098Z,12.38
2023-04-18T05:43:15.215Z,12.41
2023-04-18T05:44:15.100Z,12.35
2023-04-18T05:45:15.141Z,12.37
2023-04-18T05:47:41.674Z,12.16
2023-04-18T05:48:34.747Z,12.02
2023-04-18T05:49:34.686Z,12.15
2023-04-18T05:50:34.765Z,12.32
2023-04-18T05:51:34.593Z,12.41
2023-04-18T05:52:34.561Z,12.37
2023-04-18T05:53:34.725Z,12.36
2023-04-18T05:54:34.646Z,12.43
2023-04-18T05:55:34.565Z,12.34
2023-04-18T05:56:34.559Z,12.29
2023-04-18T05:57:34.542Z,12.26
2023-04-18T05:58:34.535Z,12.45
2023-04-18T05:59:34.508Z,12.45
2023-04-18T06:00:34.513Z,12.44
2023-04-18T06:01:34.809Z,12.42
2023-04-18T06:02:35.236Z,12.49
2023-04-18T06:03:34.628Z,12.55
2023-04-18T06:04:34.640Z,12.59
2023-04-18T06:05:34.575Z,12.36
2023-04-18T06:06:34.430Z,12.42
2023-04-18T06:07:34.458Z,12.35
2023-04-18T06:08:34.463Z,12.38
2023-04-18T06:09:34.450Z,12.34
2023-04-18T06:10:34.464Z,12.44
2023-04-18T06:11:34.425Z,12.47
2023-04-18T06:12:34.438Z,12.52
2023-04-18T06:13:34.726Z,12.52
2023-04-18T06:14:34.409Z,12.49
2023-04-18T06:15:34.404Z,12.55
2023-04-18T06:16:34.520Z,12.48
2023-04-18T06:17:34.429Z,12.66
2023-04-18T06:18:34.555Z,12.84
2023-04-18T06:19:34.390Z,12.92
2023-04-18T06:20:34.627Z,12.82
2023-04-18T06:21:34.575Z,12.82
2023-04-18T06:22:34.622Z,12.76
2023-04-18T06:23:34.728Z,12.77
2023-04-18T06:24:34.762Z,12.89
2023-04-18T06:25:34.499Z,12.98
2023-04-18T06:26:34.452Z,13.07
2023-04-18T06:27:34.992Z,13.20
2023-04-18T06:28:34.703Z,13.14
2023-04-18T06:29:36.241Z,13.18
2023-04-18T06:30:34.499Z,13.18
2023-04-18T06:31:34.541Z,13.15
2023-04-18T06:32:34.625Z,13.15
2023-04-18T06:33:35.658Z,13.19
2023-04-18T06:34:34.856Z,13.18
2023-04-18T06:35:34.515Z,13.21
2023-04-18T06:36:35.265Z,13.18
2023-04-18T06:37:34.533Z,13.26
2023-04-18T06:38:34.538Z,13.34
2023-04-18T06:39:34.726Z,13.35
2023-04-18T06:40:34.453Z,13.41
2023-04-18T06:41:34.458Z,13.53
2023-04-18T06:42:34.514Z,13.54
2023-04-18T06:43:34.482Z,13.47
2023-04-18T06:44:34.752Z,13.34
2023-04-18T06:45:34.449Z,13.33
2023-04-18T06:46:34.416Z,13.36
2023-04-18T06:47:42.150Z,13.33
2023-04-18T06:48:35.080Z,13.27
2023-04-18T06:49:34.702Z,13.32
2023-04-18T06:50:34.362Z,13.36
2023-04-18T06:51:34.361Z,13.42
2023-04-18T06:52:35.091Z,13.39
2023-04-18T06:53:35.098Z,13.34
2023-04-18T06:54:34.693Z,13.28
2023-04-18T06:55:34.696Z,13.20
2023-04-18T06:56:36.370Z,13.27
2023-04-18T06:57:34.387Z,13.37
2023-04-18T06:58:34.368Z,13.26
2023-04-18T06:59:36.112Z,13.27
2023-04-18T07:00:34.468Z,13.35
2023-04-18T07:01:34.473Z,13.38
2023-04-18T07:02:34.511Z,13.42
2023-04-18T07:03:34.629Z,13.49
2023-04-18T07:04:34.554Z,13.53
2023-04-18T07:05:34.839Z,13.55
2023-04-18T07:06:34.852Z,13.58
2023-04-18T07:07:34.529Z,13.40
2023-04-18T07:08:34.567Z,13.39
2023-04-18T07:09:34.580Z,13.35
2023-04-18T07:10:34.585Z,13.16
2023-04-18T07:11:34.591Z,13.00
2023-04-18T07:12:34.698Z,12.86
2023-04-18T07:13:34.609Z,12.95
2023-04-18T07:14:34.763Z,13.05
2023-04-18T07:15:34.821Z,12.97
2023-04-18T07:16:34.751Z,13.02
2023-04-18T07:17:35.097Z,13.22
2023-04-18T07:18:38.338Z,13.38
2023-04-18T07:19:34.640Z,13.47
2023-04-18T07:20:34.582Z,13.65
2023-04-18T07:21:34.650Z,13.73
2023-04-18T07:22:34.631Z,13.71
2023-04-18T07:23:34.615Z,13.80
2023-04-18T07:24:34.571Z,13.84
2023-04-18T07:25:34.624Z,13.81
2023-04-18T07:26:34.594Z,13.94
2023-04-18T07:27:34.557Z,14.06
2023-04-18T07:28:34.909Z,14.16
2023-04-18T07:29:34.749Z,14.09
2023-04-18T07:30:34.511Z,14.19
2023-04-18T07:31:34.635Z,14.26
2023-04-18T07:32:34.579Z,14.19
2023-04-18T07:33:34.607Z,14.17
2023-04-18T07:34:34.725Z,14.31
2023-04-18T07:35:34.673Z,14.37
2023-04-18T07:36:34.532Z,14.48
2023-04-18T07:37:34.548Z,14.32
2023-04-18T07:38:34.514Z,14.17
2023-04-18T07:39:34.816Z,14.13
2023-04-18T07:40:34.466Z,14.19
2023-04-18T07:41:34.457Z,14.27
2023-04-18T07:42:34.570Z,14.20
2023-04-18T07:43:34.494Z,14.33
2023-04-18T07:44:34.806Z,14.35
2023-04-18T07:45:35.268Z,14.35
2023-04-18T07:46:35.041Z,14.44
2023-04-18T07:47:34.851Z,14.64
2023-04-18T07:48:35.679Z,14.77
2023-04-18T07:49:35.464Z,14.83
2023-04-18T07:50:35.202Z,14.99
2023-04-18T07:51:34.795Z,15.02
2023-04-18T07:52:36.819Z,14.97
2023-04-18T07:53:35.936Z,14.78
2023-04-18T07:54:35.892Z,14.74
2023-04-18T07:55:35.965Z,14.79
2023-04-18T07:56:34.885Z,14.71
2023-04-18T07:57:35.562Z,14.75
2023-04-18T07:58:34.929Z,14.92
2023-04-18T07:59:35.221Z,15.13
2023-04-18T08:00:35.237Z,15.30
2023-04-18T08:01:35.050Z,15.35
2023-04-18T08:02:35.366Z,15.19
2023-04-18T08:03:35.171Z,15.16
2023-04-18T08:04:35.293Z,15.30
2023-04-18T08:05:35.211Z,15.52
2023-04-18T08:06:35.114Z,15.64
2023-04-18T08:07:35.271Z,15.73
2023-04-18T08:08:35.126Z,15.69
2023-04-18T08:09:35.784Z,15.66
2023-04-18T08:10:35.226Z,15.70
2023-04-18T08:11:36.227Z,15.82
2023-04-18T08:12:35.312Z,15.89
2023-04-18T08:13:35.369Z,16.15
2023-04-18T08:14:35.891Z,16.14
2023-04-18T08:15:35.437Z,16.38
2023-04-18T08:16:35.492Z,16.55
2023-04-18T08:17:35.526Z,16.70
2023-04-18T08:18:36.146Z,16.79
2023-04-18T08:19:35.656Z,16.75
2023-04-18T08:20:35.767Z,16.49
2023-04-18T08:21:35.769Z,16.58
2023-04-18T08:22:39.310Z,16.74
2023-04-18T08:23:35.913Z,16.88
2023-04-18T08:24:35.749Z,17.11
2023-04-18T08:25:35.768Z,17.14
2023-04-18T08:26:35.871Z,17.12
2023-04-18T08:27:35.718Z,16.82
2023-04-18T08:28:35.753Z,16.95
2023-04-18T08:29:35.752Z,16.94
2023-04-18T08:30:35.762Z,16.73
2023-04-18T08:31:35.730Z,16.48
2023-04-18T08:32:35.767Z,16.60
2023-04-18T08:33:35.761Z,16.81
2023-04-18T08:34:35.773Z,16.83
2023-04-18T08:35:35.710Z,16.96
2023-04-18T08:36:35.704Z,17.23
2023-04-18T08:37:35.635Z,16.77
2023-04-18T08:38:35.685Z,16.71
2023-04-18T08:39:35.746Z,16.70
2023-04-18T08:40:35.688Z,17.01
2023-04-18T08:41:35.676Z,17.14
2023-04-18T08:42:35.618Z,17.21
2023-04-18T08:43:35.717Z,17.16
2023-04-18T08:44:35.800Z,17.20
2023-04-18T08:45:35.708Z,17.02
2023-04-18T08:46:35.651Z,17.07
2023-04-18T08:47:35.662Z,17.40
2023-04-18T08:48:35.664Z,17.43
2023-04-18T08:49:35.823Z,17.31
2023-04-18T08:50:35.622Z,17.11
2023-04-18T08:51:35.624Z,17.22
2023-04-18T08:52:35.688Z,17.48
2023-04-18T08:53:35.587Z,17.65
2023-04-18T08:54:35.752Z,17.71
2023-04-18T08:55:35.554Z,17.80
2023-04-18T08:56:35.564Z,17.73
2023-04-18T08:57:35.601Z,17.64
2023-04-18T08:58:35.640Z,17.75
2023-04-18T08:59:35.885Z,17.37
2023-04-18T09:00:35.784Z,17.09
2023-04-18T09:01:35.711Z,17.23
2023-04-18T09:02:35.734Z,17.14
2023-04-18T09:03:35.828Z,17.31
2023-04-18T09:04:35.976Z,17.11
2023-04-18T09:05:35.968Z,17.10
2023-04-18T09:06:35.915Z,17.13
2023-04-18T09:07:36.221Z,17.04
2023-04-18T09:08:36.068Z,17.09
2023-04-18T09:09:36.328Z,17.30
2023-04-18T09:10:36.062Z,17.50
2023-04-18T09:11:36.252Z,17.56
2023-04-18T09:12:36.227Z,17.38
2023-04-18T09:13:37.148Z,17.35
2023-04-18T09:14:36.800Z,17.50
2023-04-18T09:15:36.332Z,17.67
2023-04-18T09:16:36.369Z,17.42
2023-04-18T09:17:36.423Z,17.47
2023-04-18T09:18:36.391Z,17.58
2023-04-18T09:19:36.726Z,17.76
2023-04-18T09:20:36.894Z,17.92
2023-04-18T09:21:37.144Z,17.91
2023-04-18T09:22:37.944Z,18.00
2023-04-18T09:23:36.550Z,18.14
2023-04-18T09:24:36.544Z,18.33
2023-04-18T09:25:37.953Z,18.36
2023-04-18T09:26:37.372Z,18.37
2023-04-18T09:27:36.611Z,18.28
2023-04-18T09:28:37.497Z,18.36
2023-04-18T09:29:37.170Z,18.39
2023-04-18T09:30:36.590Z,18.37
2023-04-18T09:31:36.605Z,18.32
2023-04-18T09:32:36.553Z,18.27
2023-04-18T09:33:36.463Z,18.21
2023-04-18T09:34:36.531Z,18.28
2023-04-18T09:35:38.241Z,18.26
2023-04-18T09:36:36.489Z,18.27
2023-04-18T09:37:36.532Z,18.21
2023-04-18T09:38:36.352Z,18.10
2023-04-18T09:39:36.415Z,18.21
2023-04-18T09:40:36.860Z,17.92
2023-04-18T09:41:36.378Z,17.73
2023-04-18T09:42:36.392Z,17.68
2023-04-18T09:43:36.398Z,17.78
2023-04-18T09:44:36.903Z,17.92
2023-04-18T09:45:36.838Z,17.90
2023-04-18T09:46:36.498Z,17.74
2023-04-18T09:47:36.593Z,17.83
2023-04-18T09:48:36.446Z,17.80
2023-04-18T09:49:36.352Z,17.87
2023-04-18T09:50:36.421Z,17.84
2023-04-18T09:51:36.322Z,17.86
2023-04-18T09:52:36.398Z,17.75
2023-04-18T09:53:37.077Z,17.65
2023-04-18T09:54:36.433Z,17.47
2023-04-18T09:55:37.174Z,17.34
2023-04-18T09:56:36.502Z,17.39
2023-04-18T09:57:36.496Z,17.66
2023-04-18T09:58:36.476Z,17.92
2023-04-18T09:59:36.588Z,18.06
2023-04-18T10:00:36.785Z,18.02
2023-04-18T10:01:36.745Z,18.09
2023-04-18T10:02:36.726Z,18.04
2023-04-18T10:03:36.775Z,18.08
2023-04-18T10:04:36.814Z,17.88
2023-04-18T10:05:36.846Z,17.32
2023-04-18T10:06:36.702Z,17.14
2023-04-18T10:07:36.822Z,17.15
2023-04-18T10:08:36.749Z,17.16
2023-04-18T10:09:44.435Z,17.30
2023-04-18T10:10:38.561Z,17.40
2023-04-18T10:11:36.806Z,17.56
2023-04-18T10:12:37.049Z,17.64
2023-04-18T10:13:36.809Z,17.69
2023-04-18T10:14:36.785Z,17.88
2023-04-18T10:15:37.424Z,17.85
2023-04-18T10:16:36.957Z,17.86
2023-04-18T10:17:37.000Z,17.71
2023-04-18T10:18:37.034Z,17.70
2023-04-18T10:19:36.982Z,17.57
2023-04-18T10:20:37.439Z,17.69
2023-04-18T10:21:37.043Z,17.86
2023-04-18T10:22:36.963Z,18.03
2023-04-18T10:23:37.133Z,18.13
2023-04-18T10:24:37.086Z,18.27
2023-04-18T10:25:37.391Z,18.31
2023-04-18T10:26:37.200Z,18.24
2023-04-18T10:27:37.188Z,18.11
2023-04-18T10:28:38.098Z,18.20
2023-04-18T10:29:37.169Z,18.37
2023-04-18T10:30:37.335Z,18.44
2023-04-18T10:31:38.103Z,18.36
2023-04-18T10:32:37.657Z,18.30
2023-04-18T10:33:41.112Z,18.09
2023-04-18T10:34:37.568Z,18.01
2023-04-18T10:35:38.387Z,18.21
2023-04-18T10:36:37.352Z,18.21
2023-04-18T10:37:37.415Z,18.50
2023-04-18T10:38:37.474Z,18.59
2023-04-18T10:39:37.621Z,18.47
2023-04-18T10:40:38.198Z,18.37
2023-04-18T10:41:37.709Z,18.66
2023-04-18T10:42:37.739Z,18.87
2023-04-18T10:43:37.717Z,18.84
2023-04-18T10:44:37.698Z,19.10
2023-04-18T10:45:37.737Z,19.34
2023-04-18T10:46:38.022Z,19.53
2023-04-18T10:47:37.911Z,19.77
2023-04-18T10:48:38.601Z,19.51
2023-04-18T10:49:37.811Z,19.60
2023-04-18T10:50:37.934Z,19.74
2023-04-18T10:51:37.970Z,19.63
2023-04-18T10:52:37.821Z,19.76
2023-04-18T10:53:38.209Z,19.62
2023-04-18T10:54:38.000Z,19.66
2023-04-18T10:55:37.876Z,19.50
2023-04-18T10:56:38.430Z,19.53
2023-04-18T10:57:37.913Z,19.78
2023-04-18T10:58:47.812Z,19.78
2023-04-18T10:59:37.981Z,19.92
2023-04-18T11:00:38.051Z,20.08
2023-04-18T11:01:38.176Z,19.98
2023-04-18T11:02:38.078Z,19.34
2023-04-18T11:03:38.061Z,19.09
2023-04-18T11:04:38.020Z,19.03
2023-04-18T11:05:37.976Z,19.36
2023-04-18T11:06:38.008Z,19.46
2023-04-18T11:07:37.882Z,19.58
2023-04-18T11:08:37.928Z,19.61
2023-04-18T11:09:37.918Z,19.57
2023-04-18T11:10:37.923Z,19.73
2023-04-18T11:11:38.333Z,19.40
2023-04-18T11:12:37.849Z,19.38
2023-04-18T11:13:37.987Z,19.58
2023-04-18T11:14:37.900Z,19.63
2023-04-18T11:15:37.883Z,19.62
2023-04-18T11:16:38.095Z,19.48
2023-04-18T11:17:37.940Z,19.63
2023-04-18T11:18:37.881Z,19.71
2023-04-18T11:19:37.999Z,19.82
2023-04-18T11:20:37.856Z,19.83
2023-04-18T11:21:37.896Z,19.73
2023-04-18T11:22:37.897Z,19.87
2023-04-18T11:23:37.900Z,19.74
2023-04-18T11:24:37.855Z,19.96
2023-04-18T11:25:37.849Z,20.08
2023-04-18T11:26:38.498Z,20.17
2023-04-18T11:27:37.941Z,20.01
2023-04-18T11:28:38.017Z,20.13
2023-04-18T11:29:38.251Z,20.08
2023-04-18T11:30:38.034Z,19.92
2023-04-18T11:31:38.643Z,19.66
2023-04-18T11:32:39.537Z,19.35
2023-04-18T11:33:38.372Z,19.35
2023-04-18T11:34:38.097Z,19.52
2023-04-18T11:35:38.543Z,19.65
2023-04-18T11:36:38.517Z,19.83
2023-04-18T11:37:38.230Z,19.83
2023-04-18T11:38:38.326Z,19.95
2023-04-18T11:39:38.370Z,20.08
2023-04-18T11:40:38.324Z,20.24
2023-04-18T11:41:38.382Z,20.33
2023-04-18T11:42:38.362Z,20.49
2023-04-18T11:43:38.403Z,20.45
2023-04-18T11:44:38.442Z,20.39
2023-04-18T11:45:38.602Z,20.39
2023-04-18T11:46:38.518Z,20.52
2023-04-18T11:47:38.513Z,20.44
2023-04-18T11:48:38.582Z,20.29
2023-04-18T11:49:38.541Z,20.32
2023-04-18T11:50:38.565Z,20.46
2023-04-18T11:51:38.797Z,20.45
2023-04-18T11:52:38.659Z,20.61
2023-04-18T11:53:39.486Z,20.95
2023-04-18T11:54:38.664Z,20.94
2023-04-18T11:55:38.723Z,20.27
2023-04-18T11:56:38.778Z,20.01
2023-04-18T11:57:38.796Z,19.88
2023-04-18T11:58:38.974Z,19.71
2023-04-18T11:59:38.845Z,19.56
2023-04-18T12:00:38.970Z,19.74
2023-04-18T12:01:39.336Z,20.08
2023-04-18T12:02:39.187Z,20.36
2023-04-18T12:03:39.101Z,20.55
2023-04-18T12:04:39.279Z,20.56
2023-04-18T12:05:39.218Z,20.58
2023-04-18T12:06:39.130Z,20.64
2023-04-18T12:07:39.140Z,20.56
2023-04-18T12:08:39.127Z,20.72
2023-04-18T12:09:39.232Z,20.77
2023-04-18T12:10:39.225Z,20.83
2023-04-18T12:11:39.253Z,20.81
2023-04-18T12:12:39.296Z,20.84
2023-04-18T12:13:39.325Z,20.68
2023-04-18T12:14:39.357Z,20.83
2023-04-18T12:15:39.531Z,20.76
2023-04-18T12:16:39.474Z,20.63
2023-04-18T12:17:39.529Z,20.80
2023-04-18T12:18:39.572Z,20.84
2023-04-18T12:19:39.546Z,20.83
2023-04-18T12:20:39.631Z,20.89
2023-04-18T12:21:39.640Z,20.95
2023-04-18T12:22:39.762Z,20.90
2023-04-18T12:23:39.713Z,20.79
2023-04-18T12:24:39.757Z,20.69
2023-04-18T12:25:39.900Z,20.58
2023-04-18T12:26:39.784Z,20.66
2023-04-18T12:27:39.745Z,20.89
2023-04-18T12:28:39.855Z,21.00
2023-04-18T12:29:39.866Z,21.03
2023-04-18T12:30:39.910Z,20.92
2023-04-18T12:31:39.944Z,20.85
2023-04-18T12:32:40.144Z,20.61
2023-04-18T12:33:40.014Z,20.24
2023-04-18T12:34:40.071Z,20.19
2023-04-18T12:35:40.055Z,20.31
2023-04-18T12:36:40.121Z,20.27
2023-04-18T12:37:40.169Z,19.99
2023-04-18T12:38:40.215Z,19.76
2023-04-18T12:39:40.232Z,19.94
2023-04-18T12:40:40.317Z,20.15
2023-04-18T12:41:40.396Z,19.77
2023-04-18T12:42:40.304Z,19.75
2023-04-18T12:43:40.318Z,19.89
2023-04-18T12:44:40.373Z,20.14
2023-04-18T12:45:40.398Z,20.32
2023-04-18T12:46:40.460Z,20.37
2023-04-18T12:47:40.485Z,20.20
2023-04-18T12:48:40.417Z,20.23
2023-04-18T12:49:40.499Z,19.96
2023-04-18T12:50:40.502Z,20.13
2023-04-18T12:51:40.595Z,19.66
2023-04-18T12:52:40.583Z,19.77
2023-04-18T12:53:40.716Z,19.87
2023-04-18T12:54:40.604Z,20.00
2023-04-18T12:55:40.647Z,20.09